Time;durP1;ratioP1;P1;durP2;ratioP2;P2;SDS_P1;SDS_P2;PMS_P1;PMS_P2;Temp;Humidity;BMP_temperature;BMP_pressure;BME280_temperature;BME280_humidity;BME280_pressure;Samples;Min_cycle;Max_cycle;Signal;HPM_P1;HPM_P2
2023/09/27 00:00:11;;;;;;;;;3.00;2.00;;;;;26.65;44.56;101787.28;5074690;28;45270;-82
2023/09/27 00:02:38;;;;;;;;;1.67;1.67;;;;;26.65;44.70;101785.44;5073893;28;45557;-82
2023/09/27 00:05:06;;;;;;;;;6.33;3.33;;;;;26.58;44.48;101774.69;5073969;27;45592;-83
2023/09/27 00:07:33;;;;;;;;;4.00;2.00;;;;;26.64;44.52;101791.78;5056106;28;47171;-82
2023/09/27 00:09:59;;;;;;;;;2.00;2.00;;;;;26.52;45.03;101767.44;5071203;27;45422;-82
2023/09/27 00:12:24;;;;;;;;;2.00;2.00;;;;;26.64;44.91;101781.13;5074394;28;45464;-82
2023/09/27 00:14:49;;;;;;;;;2.33;2.33;;;;;26.61;44.45;101790.34;5069664;27;45306;-82
2023/09/27 00:17:14;;;;;;;;;1.00;1.00;;;;;26.60;44.41;101794.00;5071856;28;54193;-82
2023/09/27 00:19:41;;;;;;;;;2.33;1.00;;;;;26.64;44.57;101805.13;5065652;27;47720;-82
2023/09/27 00:22:08;;;;;;;;;1.67;1.67;;;;;26.46;44.46;101785.03;5073963;28;45376;-82
2023/09/27 00:24:34;;;;;;;;;2.67;2.67;;;;;26.54;44.95;101786.75;5076645;27;45380;-81
2023/09/27 00:26:59;;;;;;;;;2.67;2.00;;;;;26.57;45.14;101786.38;5054458;28;45488;-82
2023/09/27 00:29:25;;;;;;;;;2.67;2.67;;;;;26.56;44.84;101787.41;5071203;28;45233;-82
2023/09/27 00:31:51;;;;;;;;;5.00;4.00;;;;;26.49;44.97;101768.63;5078656;27;46112;-82
2023/09/27 00:34:16;;;;;;;;;2.00;2.00;;;;;26.54;45.10;101780.59;5077814;27;45519;-81
2023/09/27 00:36:41;;;;;;;;;3.33;2.00;;;;;26.55;44.54;101785.72;5071896;27;46259;-81
2023/09/27 00:39:07;;;;;;;;;3.33;3.33;;;;;26.61;44.50;101795.66;5058476;28;45370;-83
2023/09/27 00:41:32;;;;;;;;;2.00;2.00;;;;;26.43;44.62;101744.53;5058381;28;45322;-81
2023/09/27 00:43:57;;;;;;;;;1.67;1.67;;;;;26.62;44.94;101789.28;5068703;28;45409;-82
2023/09/27 00:46:23;;;;;;;;;4.33;2.67;;;;;26.40;44.64;101767.91;5059110;27;45931;-83
2023/09/27 00:48:48;;;;;;;;;3.00;3.00;;;;;26.56;44.54;101792.75;5059216;28;45432;-82
2023/09/27 00:51:14;;;;;;;;;2.00;2.00;;;;;26.63;44.74;101798.13;5058769;28;45400;-82
2023/09/27 00:53:42;;;;;;;;;2.33;2.33;;;;;26.62;45.01;101791.16;5059345;28;45348;-81
2023/09/27 00:56:08;;;;;;;;;1.67;1.67;;;;;26.61;44.57;101787.66;5058691;28;46482;-81
2023/09/27 00:58:34;;;;;;;;;3.00;3.00;;;;;26.61;45.18;101795.66;5057678;28;46119;-82
2023/09/27 01:01:00;;;;;;;;;2.67;1.00;;;;;26.51;44.86;101776.47;5058673;27;45539;-82
2023/09/27 01:03:26;;;;;;;;;3.67;3.67;;;;;26.59;44.32;101775.53;5058895;28;45324;-81
2023/09/27 01:05:52;;;;;;;;;2.67;2.67;;;;;26.61;44.69;101771.66;5050550;28;46421;-82
2023/09/27 01:08:18;;;;;;;;;1.00;1.00;;;;;26.61;44.84;101768.16;5056285;28;45494;-83
2023/09/27 01:10:45;;;;;;;;;3.00;3.00;;;;;26.46;44.55;101762.84;5058320;28;45398;-82
2023/09/27 01:13:10;;;;;;;;;2.33;2.33;;;;;26.53;44.57;101777.09;5058330;28;45355;-82
2023/09/27 01:15:36;;;;;;;;;2.00;2.00;;;;;26.60;44.65;101795.84;5064086;28;47618;-82
2023/09/27 01:18:02;;;;;;;;;4.00;3.67;;;;;26.51;44.81;101784.47;5077738;27;45370;-82
2023/09/27 01:20:29;;;;;;;;;3.00;1.33;;;;;26.60;44.65;101782.50;5051406;27;45375;-82
2023/09/27 01:23:02;;;;;;;;;4.00;3.00;;;;;26.55;44.47;101766.22;5058335;28;45424;-82
2023/09/27 01:25:29;;;;;;;;;3.00;3.00;;;;;26.59;45.03;101775.53;5058229;28;47406;-82
2023/09/27 01:27:57;;;;;;;;;2.00;2.00;;;;;26.59;44.40;101786.19;5057751;28;45289;-82
2023/09/27 01:30:22;;;;;;;;;1.33;1.00;;;;;26.50;44.90;101778.31;5058439;28;45484;-82
2023/09/27 01:32:47;;;;;;;;;3.33;3.00;;;;;26.58;44.44;101796.03;5057882;28;45511;-82
2023/09/27 01:35:13;;;;;;;;;3.00;2.33;;;;;26.53;44.69;101785.09;5058892;28;45517;-81
2023/09/27 01:37:38;;;;;;;;;2.00;2.00;;;;;26.51;44.58;101795.16;5050676;28;45363;-82
2023/09/27 01:40:09;;;;;;;;;3.00;3.00;;;;;26.58;44.61;101796.03;5061512;27;45546;-82
2023/09/27 01:42:35;;;;;;;;;2.33;2.33;;;;;26.50;44.39;101778.31;5064941;28;45385;-81
2023/09/27 01:45:00;;;;;;;;;4.00;3.00;;;;;26.59;44.90;101791.53;5077450;27;46989;-82
2023/09/27 01:47:25;;;;;;;;;3.00;2.33;;;;;26.51;45.03;101784.47;5076681;27;45217;-82
2023/09/27 01:49:51;;;;;;;;;3.33;3.00;;;;;26.45;44.39;101774.53;5077985;27;45237;-81
2023/09/27 01:52:16;;;;;;;;;2.00;2.00;;;;;26.59;45.05;101796.88;5076952;27;45457;-82
2023/09/27 01:54:41;;;;;;;;;4.00;2.00;;;;;26.49;44.51;101783.84;5077506;27;45296;-81
2023/09/27 01:57:07;;;;;;;;;3.00;2.00;;;;;26.50;44.57;101785.47;5076815;28;45341;-82
2023/09/27 01:59:32;;;;;;;;;4.00;3.00;;;;;26.58;44.46;101804.03;5077171;28;45781;-82
2023/09/27 02:01:57;;;;;;;;;3.00;3.00;;;;;26.55;44.72;101795.56;5074916;27;45435;-83
2023/09/27 02:04:24;;;;;;;;;2.00;2.00;;;;;26.49;44.53;101776.63;5074008;27;46211;-82
2023/09/27 02:06:49;;;;;;;;;2.67;2.33;;;;;26.61;44.28;101786.81;5071921;28;45434;-82
2023/09/27 02:09:14;;;;;;;;;2.00;2.00;;;;;26.60;44.62;101777.16;5074961;28;45516;-82
2023/09/27 02:11:40;;;;;;;;;2.00;2.00;;;;;26.60;44.73;101779.81;5076261;27;45541;-82
2023/09/27 02:14:05;;;;;;;;;1.00;1.00;;;;;26.57;44.47;101772.22;5068358;28;49809;-82
2023/09/27 02:16:33;;;;;;;;;3.33;2.00;;;;;26.50;44.29;101748.13;5076197;27;45354;-82
2023/09/27 02:18:59;;;;;;;;;0.67;0.67;;;;;26.51;44.45;101741.78;5077628;27;45552;-82
2023/09/27 02:21:24;;;;;;;;;2.00;1.67;;;;;26.55;45.04;101739.53;5076029;27;45368;-82
2023/09/27 02:23:49;;;;;;;;;3.00;1.00;;;;;26.57;44.84;101741.00;5065378;28;45328;-82
2023/09/27 02:26:15;;;;;;;;;1.67;1.67;;;;;26.57;45.11;101737.53;5068540;27;45976;-81
2023/09/27 02:28:43;;;;;;;;;2.00;2.00;;;;;26.57;44.62;101741.00;5077013;27;45557;-82
2023/09/27 02:31:09;;;;;;;;;4.33;2.00;;;;;26.57;44.97;101749.00;5075984;27;45477;-82
2023/09/27 02:33:36;;;;;;;;;2.00;2.00;;;;;26.57;44.48;101734.84;5076837;27;47054;-81
2023/09/27 02:36:02;;;;;;;;;3.00;3.00;;;;;26.58;44.41;101736.50;5073794;28;45490;-82
2023/09/27 02:38:27;;;;;;;;;3.33;2.33;;;;;26.53;44.63;101723.72;5057533;28;45536;-81
2023/09/27 02:40:52;;;;;;;;;2.00;2.00;;;;;26.57;44.99;101732.19;5055971;28;45344;-81
2023/09/27 02:43:18;;;;;;;;;2.00;2.00;;;;;26.55;44.81;101734.19;5056291;28;45358;-82
2023/09/27 02:45:43;;;;;;;;;1.00;1.00;;;;;26.40;44.75;101706.53;5068478;28;45446;-83
2023/09/27 02:48:09;;;;;;;;;4.67;2.67;;;;;26.48;44.29;101710.13;5051493;27;45815;-82
2023/09/27 02:50:34;;;;;;;;;2.33;2.33;;;;;26.56;44.39;101726.03;5074865;27;45423;-81
2023/09/27 02:52:59;;;;;;;;;2.00;2.00;;;;;26.53;44.30;101723.72;5076190;27;47286;-82
2023/09/27 02:55:26;;;;;;;;;2.00;2.00;;;;;26.45;44.28;101703.31;5075919;27;45193;-81
2023/09/27 02:57:51;;;;;;;;;3.00;2.00;;;;;26.30;44.32;101679.34;5051031;28;45456;-82
2023/09/27 03:00:20;;;;;;;;;2.00;2.00;;;;;26.57;44.47;101719.66;5075713;28;45613;-82
2023/09/27 03:02:45;;;;;;;;;3.00;2.00;;;;;26.53;44.35;101691.69;5076359;27;46384;-82
2023/09/27 03:05:11;;;;;;;;;2.00;2.00;;;;;26.47;44.45;101687.94;5075698;27;45424;-83
2023/09/27 03:07:38;;;;;;;;;1.00;1.00;;;;;26.46;44.29;101683.66;5076715;27;45354;-82
2023/09/27 03:10:08;;;;;;;;;2.00;2.00;;;;;26.53;44.72;101675.69;5073180;27;45415;-82
2023/09/27 03:12:33;;;;;;;;;2.00;2.00;;;;;26.59;44.81;101679.44;5068097;27;46254;-82
2023/09/27 03:14:59;;;;;;;;;1.33;1.33;;;;;26.55;44.46;101660.31;5070097;28;45396;-82
2023/09/27 03:17:24;;;;;;;;;2.67;2.00;;;;;26.52;44.43;101650.84;5076063;27;45503;-82
2023/09/27 03:19:49;;;;;;;;;2.00;1.67;;;;;26.36;44.84;101609.22;5069476;27;45451;-82
2023/09/27 03:22:17;;;;;;;;;2.67;1.33;;;;;26.52;44.66;101631.34;5075745;27;46171;-82
2023/09/27 03:24:42;;;;;;;;;2.33;2.33;;;;;26.56;44.40;101623.78;5062791;28;45392;-81
2023/09/27 03:27:08;;;;;;;;;1.00;1.00;;;;;26.56;44.29;101629.94;5064036;28;45427;-81
2023/09/27 03:29:35;;;;;;;;;2.33;2.33;;;;;26.56;44.36;101618.44;5075230;27;45567;-81
2023/09/27 03:32:00;;;;;;;;;2.00;2.00;;;;;26.56;44.26;101613.09;5075665;27;46964;-82
2023/09/27 03:34:25;;;;;;;;;2.67;2.67;;;;;26.55;44.27;101632.78;5074396;28;45172;-81
2023/09/27 03:36:55;;;;;;;;;2.00;2.00;;;;;26.42;44.37;101620.97;5056499;28;45355;-81
2023/09/27 03:39:22;;;;;;;;;1.00;1.00;;;;;26.54;44.88;101623.16;5061207;28;45529;-81
2023/09/27 03:41:48;;;;;;;;;1.33;1.33;;;;;26.45;44.63;101595.78;5065994;28;48144;-81
2023/09/27 03:44:13;;;;;;;;;1.00;1.00;;;;;26.54;44.28;101621.31;5070399;28;45621;-82
2023/09/27 03:46:38;;;;;;;;;2.33;2.33;;;;;26.48;44.69;101630.06;5076266;27;45334;-83
2023/09/27 03:49:04;;;;;;;;;2.00;2.00;;;;;26.31;44.27;101600.94;5070897;27;45280;-82
2023/09/27 03:51:29;;;;;;;;;2.00;2.00;;;;;26.43;44.87;101619.13;5070049;28;46768;-81
2023/09/27 03:53:55;;;;;;;;;3.00;1.67;;;;;26.45;44.54;101625.94;5068531;28;45599;-81
2023/09/27 03:56:20;;;;;;;;;2.00;2.00;;;;;26.38;44.88;101625.88;5058588;28;45307;-82
2023/09/27 03:58:45;;;;;;;;;1.33;1.33;;;;;26.55;44.25;101648.81;5070699;28;45323;-82
2023/09/27 04:01:12;;;;;;;;;3.00;1.33;;;;;26.46;44.47;101648.13;5067337;27;46249;-82
2023/09/27 04:03:38;;;;;;;;;2.00;2.00;;;;;26.40;44.77;101647.00;5056939;28;45576;-82
2023/09/27 04:06:03;;;;;;;;;2.33;2.33;;;;;26.43;44.64;101659.16;5072617;27;45429;-82
2023/09/27 04:08:28;;;;;;;;;3.00;2.33;;;;;26.54;44.84;101677.34;5074308;28;45509;-82
2023/09/27 04:10:53;;;;;;;;;1.00;1.00;;;;;26.56;44.64;101680.66;5073117;27;53105;-82
2023/09/27 04:13:19;;;;;;;;;2.00;2.00;;;;;26.50;44.20;101678.75;5067865;27;45419;-82
2023/09/27 04:15:49;;;;;;;;;2.00;2.00;;;;;26.56;44.55;101687.84;5075319;28;45478;-81
2023/09/27 04:18:14;;;;;;;;;1.33;1.33;;;;;26.57;44.71;101697.50;5073767;27;45359;-82
2023/09/27 04:20:40;;;;;;;;;2.33;2.33;;;;;26.46;44.55;101697.00;5075052;28;45372;-81
2023/09/27 04:23:05;;;;;;;;;1.67;1.67;;;;;26.40;44.79;101692.38;5074255;27;45418;-81
2023/09/27 04:25:30;;;;;;;;;3.00;3.00;;;;;26.55;44.24;101719.03;5069935;27;45319;-81
2023/09/27 04:27:55;;;;;;;;;3.00;2.00;;;;;26.54;44.50;101717.38;5064702;28;52172;-82
2023/09/27 04:30:22;;;;;;;;;2.67;2.00;;;;;26.54;44.22;101716.56;5075135;28;46381;-81
2023/09/27 04:32:53;;;;;;;;;2.67;2.67;;;;;26.55;44.58;101718.19;5073276;27;45486;-82
2023/09/27 04:35:19;;;;;;;;;2.00;2.00;;;;;26.39;44.61;101693.38;5064667;28;45433;-81
2023/09/27 04:37:45;;;;;;;;;2.00;2.00;;;;;26.55;44.30;101720.84;5056021;27;45464;-82
2023/09/27 04:40:11;;;;;;;;;2.33;2.00;;;;;26.39;44.93;101698.72;5053604;28;46178;-81
2023/09/27 04:42:42;;;;;;;;;2.67;2.67;;;;;26.39;44.54;101699.53;5054965;28;45755;-81
2023/09/27 04:45:11;;;;;;;;;1.67;1.67;;;;;26.52;44.27;101725.56;5055311;28;45425;-83
2023/09/27 04:47:37;;;;;;;;;1.00;1.00;;;;;26.52;44.80;101732.72;5054327;28;45470;-83
2023/09/27 04:50:03;;;;;;;;;2.00;2.00;;;;;26.52;44.96;101724.72;5054905;28;45415;-81
2023/09/27 04:52:29;;;;;;;;;2.00;2.00;;;;;26.49;44.31;101725.94;5055200;28;45417;-81
2023/09/27 04:54:58;;;;;;;;;1.67;1.67;;;;;26.48;44.47;101726.97;5055486;28;45372;-81
2023/09/27 04:57:24;;;;;;;;;1.67;1.67;;;;;26.47;44.88;101722.63;5049960;28;45318;-82
2023/09/27 04:59:53;;;;;;;;;1.33;1.33;;;;;26.48;44.48;101724.31;5049073;28;47192;-81
2023/09/27 05:02:22;;;;;;;;;2.00;2.00;;;;;26.48;44.76;101721.63;5054865;28;45394;-81
2023/09/27 05:04:48;;;;;;;;;3.00;3.00;;;;;26.43;44.50;101705.34;5054417;28;45742;-82
2023/09/27 05:07:18;;;;;;;;;2.00;2.00;;;;;26.52;44.45;101716.72;5055703;28;45376;-82
2023/09/27 05:09:43;;;;;;;;;1.67;1.67;;;;;26.42;44.59;101703.66;5058032;28;47407;-82
2023/09/27 05:12:09;;;;;;;;;2.00;2.00;;;;;26.52;44.08;101722.06;5058262;28;45497;-81
2023/09/27 05:14:34;;;;;;;;;1.67;1.67;;;;;26.52;44.72;101722.88;5058907;28;45378;-81
2023/09/27 05:17:00;;;;;;;;;1.00;1.00;;;;;26.54;44.50;101709.38;5058821;28;45492;-81
2023/09/27 05:19:25;;;;;;;;;2.00;2.00;;;;;26.53;44.42;101702.38;5058467;28;45428;-81
2023/09/27 05:21:51;;;;;;;;;2.00;2.00;;;;;26.41;44.44;101684.16;5058032;28;45549;-81
2023/09/27 05:24:16;;;;;;;;;3.00;3.00;;;;;26.53;44.44;101705.03;5056711;28;45532;-81
2023/09/27 05:26:41;;;;;;;;;3.00;1.00;;;;;26.44;44.51;101693.66;5059129;28;45307;-81
2023/09/27 05:29:13;;;;;;;;;2.67;2.67;;;;;26.54;44.11;101714.72;5068755;28;46269;-81
2023/09/27 05:31:43;;;;;;;;;1.67;1.67;;;;;26.51;44.86;101701.75;5066493;27;45465;-81
2023/09/27 05:34:08;;;;;;;;;1.00;1.00;;;;;26.52;44.37;101706.88;5076979;27;45297;-81
2023/09/27 05:36:34;;;;;;;;;2.33;1.00;;;;;26.52;44.33;101712.22;5070184;27;45304;-81
2023/09/27 05:39:02;;;;;;;;;2.67;1.00;;;;;26.12;44.25;101637.94;5066819;28;46471;-79
2023/09/27 05:41:27;;;;;;;;;1.00;1.00;;;;;26.46;44.68;101688.16;5070628;27;45366;-81
2023/09/27 05:43:52;;;;;;;;;2.33;1.00;;;;;26.41;44.78;101670.81;5070094;28;45429;-82
2023/09/27 05:46:18;;;;;;;;;3.00;2.00;;;;;26.51;44.31;101680.41;5076373;27;45542;-82
2023/09/27 05:48:43;;;;;;;;;2.00;2.00;;;;;26.39;44.76;101664.03;5077305;27;46247;-81
2023/09/27 05:51:09;;;;;;;;;2.00;2.00;;;;;26.47;44.60;101693.28;5076115;27;45444;-81
2023/09/27 05:53:34;;;;;;;;;2.00;2.00;;;;;26.45;44.74;101678.47;5076837;27;45351;-81
2023/09/27 05:56:03;;;;;;;;;1.00;1.00;;;;;26.51;44.16;101686.56;5076840;27;45436;-81
2023/09/27 05:58:29;;;;;;;;;1.00;1.00;;;;;26.45;44.61;101673.97;5076957;27;46893;-81
2023/09/27 06:00:55;;;;;;;;;1.00;1.00;;;;;26.42;44.87;101658.31;5076729;28;45287;-81
2023/09/27 06:03:20;;;;;;;;;2.00;2.00;;;;;26.50;44.60;101670.72;5072020;28;45450;-82
2023/09/27 06:05:46;;;;;;;;;3.00;3.00;;;;;26.18;44.64;101621.16;5070114;28;45334;-81
2023/09/27 06:08:11;;;;;;;;;2.67;2.67;;;;;26.50;44.29;101660.88;5057352;28;46167;-82
2023/09/27 06:10:37;;;;;;;;;1.33;1.33;;;;;26.48;44.05;101644.25;5075299;28;45640;-84
2023/09/27 06:13:03;;;;;;;;;1.67;1.67;;;;;26.50;44.28;101655.56;5064288;27;45485;-83
2023/09/27 06:15:32;;;;;;;;;1.00;1.00;;;;;26.49;44.14;101648.56;5066808;28;45360;-84
2023/09/27 06:17:58;;;;;;;;;3.00;3.00;;;;;26.49;43.67;101656.56;5063117;28;46529;-78
2023/09/27 06:20:29;;;;;;;;;2.00;2.00;;;;;26.41;43.56;101654.81;5075162;28;45444;-80
2023/09/27 06:22:57;;;;;;;;;4.00;3.67;;;;;26.13;43.30;101642.22;5063596;27;45392;-82
2023/09/27 06:25:28;;;;;;;;;7.67;3.33;;;;;26.07;42.82;101670.47;5068987;27;45497;-81
2023/09/27 06:27:54;;;;;;;;;4.00;4.00;;;;;25.89;43.01;101670.06;5072135;27;47251;-84
2023/09/27 06:30:20;;;;;;;;;4.00;4.00;;;;;25.68;43.30;101661.81;5073025;27;45428;-80
2023/09/27 06:32:46;;;;;;;;;4.33;3.33;;;;;25.66;43.16;101679.78;5044844;28;45477;-80
2023/09/27 06:35:14;;;;;;;;;5.00;4.00;;;;;25.39;43.33;101660.78;5030540;27;45846;-80
2023/09/27 06:37:48;;;;;;;;;3.00;3.00;;;;;25.40;43.50;101678.41;5048762;28;47870;-82
2023/09/27 06:40:16;;;;;;;;;3.33;3.00;;;;;25.09;43.96;101642.13;5052357;28;45541;-90
2023/09/27 06:42:43;;;;;;;;;4.00;2.33;;;;;25.52;43.57;101684.97;5056798;28;45619;-82
2023/09/27 06:45:10;;;;;;;;;2.67;2.00;;;;;25.40;43.35;101646.44;5051853;28;45550;-85
2023/09/27 06:47:38;;;;;;;;;3.00;3.00;;;;;25.24;43.58;101603.00;5055832;28;45423;-84
2023/09/27 06:50:04;;;;;;;;;2.00;2.00;;;;;25.48;43.86;101627.72;5054876;28;45758;-83
2023/09/27 06:52:29;;;;;;;;;3.00;3.00;;;;;25.71;43.39;101664.06;5050354;28;45372;-81
2023/09/27 06:54:55;;;;;;;;;3.33;2.67;;;;;25.61;43.72;101640.38;5055088;28;45526;-79
2023/09/27 06:57:20;;;;;;;;;3.67;2.00;;;;;25.67;43.44;101632.66;5051955;28;47010;-80
2023/09/27 06:59:46;;;;;;;;;2.67;2.67;;;;;25.73;43.74;101640.78;5050674;28;45990;-82
2023/09/27 07:02:12;;;;;;;;;4.33;2.00;;;;;25.66;43.95;101617.69;5053378;28;45423;-82
2023/09/27 07:04:38;;;;;;;;;3.67;3.00;;;;;25.95;43.31;101648.81;5052452;28;45557;-83
2023/09/27 07:07:04;;;;;;;;;3.33;3.33;;;;;25.94;43.33;101636.47;5053746;28;45588;-83
2023/09/27 07:09:33;;;;;;;;;4.00;4.00;;;;;25.98;43.44;101623.63;5055868;28;45153;-82
2023/09/27 07:11:58;;;;;;;;;4.00;3.00;;;;;26.01;43.17;101609.09;5053073;28;45621;-81
2023/09/27 07:14:23;;;;;;;;;3.67;3.33;;;;;25.97;43.50;101592.63;5048590;28;45732;-82
2023/09/27 07:16:49;;;;;;;;;4.33;3.00;;;;;25.87;43.53;101571.59;5052894;28;47346;-79
2023/09/27 07:19:15;;;;;;;;;4.00;3.33;;;;;26.04;43.36;101585.53;5055416;28;45399;-86
2023/09/27 07:21:41;;;;;;;;;3.00;3.00;;;;;26.20;43.25;101601.47;5050179;28;45384;-86
2023/09/27 07:24:09;;;;;;;;;3.00;3.00;;;;;26.13;43.73;101577.41;5052992;28;45393;-86
2023/09/27 07:26:35;;;;;;;;;3.67;2.33;;;;;26.21;43.22;101579.09;5054150;28;46643;-85
2023/09/27 07:29:00;;;;;;;;;4.67;3.00;;;;;26.11;43.54;101544.75;5035712;28;45466;-85
2023/09/27 07:31:26;;;;;;;;;3.33;2.00;;;;;26.24;43.53;101555.56;5055051;28;45523;-85
2023/09/27 07:33:55;;;;;;;;;3.50;3.50;;;;;26.37;42.93;101560.19;5067890;28;45493;-87
2023/09/27 07:36:24;;;;;;;;;4.00;4.00;;;;;26.47;43.13;101564.38;5071486;28;46560;-86
2023/09/27 07:38:50;;;;;;;;;3.00;3.00;;;;;26.57;43.19;101564.06;5055852;28;45482;-86
2023/09/27 07:41:16;;;;;;;;;4.33;3.67;;;;;26.59;43.37;101578.03;5057110;28;45390;-86
2023/09/27 07:43:42;;;;;;;;;5.00;4.00;;;;;26.65;43.35;101576.44;5056081;28;45505;-85
2023/09/27 07:46:08;;;;;;;;;5.00;4.00;;;;;26.72;42.98;101550.63;5056225;28;47338;-85
2023/09/27 07:48:35;;;;;;;;;3.00;3.00;;;;;26.69;42.95;101553.66;5066597;28;45675;-85
2023/09/27 07:51:01;;;;;;;;;4.00;4.00;;;;;26.84;42.84;101556.22;5068192;27;45295;-85
2023/09/27 07:53:26;;;;;;;;;3.67;3.67;;;;;26.81;43.46;101528.06;5055634;28;45517;-85
2023/09/27 07:55:53;;;;;;;;;5.67;4.00;;;;;27.00;42.47;101555.09;5060220;28;46521;-86
2023/09/27 07:58:18;;;;;;;;;3.33;3.33;;;;;27.02;43.04;101549.53;5064800;27;45408;-85
2023/09/27 08:00:44;;;;;;;;;5.33;4.00;;;;;26.98;42.75;101546.47;5055853;28;45359;-85
2023/09/27 08:03:14;;;;;;;;;6.00;3.00;;;;;26.92;43.09;101525.88;5067371;28;45320;-85
2023/09/27 08:05:43;;;;;;;;;4.33;3.67;;;;;27.12;43.10;101560.69;5071836;27;47289;-85
2023/09/27 08:08:13;;;;;;;;;2.33;2.33;;;;;27.13;42.43;101559.72;5056682;28;45314;-85
2023/09/27 08:10:45;;;;;;;;;3.67;3.00;;;;;27.09;42.50;101566.41;5069955;28;45371;-85
2023/09/27 08:13:16;;;;;;;;;3.33;2.67;;;;;27.13;42.47;101590.94;5069626;28;45398;-85
2023/09/27 08:15:46;;;;;;;;;2.33;2.00;;;;;27.12;42.85;101591.91;5049774;28;46120;-84
2023/09/27 08:18:12;;;;;;;;;4.00;4.00;;;;;27.10;42.50;101596.63;5062636;28;45587;-85
2023/09/27 08:20:37;;;;;;;;;2.00;2.00;;;;;27.03;42.91;101588.59;5075614;27;45460;-85
2023/09/27 08:23:03;;;;;;;;;3.33;3.33;;;;;27.03;42.77;101593.94;5075077;27;45525;-85
2023/09/27 08:25:28;;;;;;;;;3.00;3.00;;;;;27.07;42.50;101613.88;5065139;27;45965;-86
2023/09/27 08:27:54;;;;;;;;;5.00;3.00;;;;;27.06;42.58;101607.69;5066332;27;45329;-85
2023/09/27 08:30:20;;;;;;;;;6.67;4.33;;;;;27.06;43.28;101613.03;5076334;27;45391;-86
2023/09/27 08:32:46;;;;;;;;;4.00;4.00;;;;;26.82;43.17;101577.78;5062843;27;45478;-86
2023/09/27 08:35:12;;;;;;;;;3.33;3.00;;;;;27.01;43.32;101593.31;5046958;27;45403;-86
2023/09/27 08:37:38;;;;;;;;;3.67;2.33;;;;;27.02;42.50;101581.59;5053363;28;45501;-86
2023/09/27 08:40:12;;;;;;;;;5.00;3.00;;;;;27.24;43.09;101613.59;5070640;28;45421;-86
2023/09/27 08:42:39;;;;;;;;;2.67;2.67;;;;;27.21;42.46;101605.97;5060603;28;45446;-85
2023/09/27 08:45:16;;;;;;;;;3.00;2.00;;;;;27.26;42.91;101603.53;5070507;27;46112;-84
2023/09/27 08:47:44;;;;;;;;;4.33;3.00;;;;;27.35;43.16;101622.91;5075631;28;45432;-84
2023/09/27 08:50:15;;;;;;;;;5.00;4.00;;;;;27.27;42.34;101614.00;5079634;27;45506;-85
2023/09/27 08:52:50;;;;;;;;;4.67;4.00;;;;;27.26;42.73;101617.72;5065806;27;45351;-84
2023/09/27 08:55:17;;;;;;;;;3.00;3.00;;;;;27.24;43.27;101622.44;5066191;27;46802;-85
2023/09/27 08:57:51;;;;;;;;;3.33;3.33;;;;;27.32;42.63;101636.66;5064194;28;45464;-85
2023/09/27 09:00:25;;;;;;;;;3.33;3.33;;;;;27.31;42.92;101632.31;5076178;27;45392;-85
2023/09/27 09:02:56;;;;;;;;;3.00;3.00;;;;;27.28;43.37;101631.69;5058625;28;45553;-85
2023/09/27 09:05:28;;;;;;;;;3.67;3.00;;;;;27.25;43.48;101634.75;5058728;28;47046;-85
2023/09/27 09:07:59;;;;;;;;;5.00;3.67;;;;;27.24;42.90;101627.78;5050523;28;45547;-85
2023/09/27 09:10:24;;;;;;;;;5.00;4.00;;;;;27.18;43.25;101616.03;5069627;28;45688;-85
2023/09/27 09:12:50;;;;;;;;;5.00;3.00;;;;;27.25;43.55;101617.91;5058902;28;45323;-84
2023/09/27 09:15:39;;;;;;;;;4.00;4.00;;;;;27.28;42.92;101615.66;5058575;28;46314;-85
2023/09/27 09:18:08;;;;;;;;;3.67;3.67;;;;;27.25;42.84;101593.84;5057966;28;45288;-86
2023/09/27 09:20:49;;;;;;;;;3.00;3.00;;;;;27.35;42.80;101601.53;5058048;28;45359;-84
2023/09/27 09:23:27;;;;;;;;;4.00;3.00;;;;;27.27;43.00;101578.47;5049066;28;45481;-85
2023/09/27 09:25:53;;;;;;;;;3.67;3.67;;;;;27.41;43.29;101600.72;5050716;27;46292;-85
2023/09/27 09:28:20;;;;;;;;;5.00;4.00;;;;;27.33;43.43;101572.31;5057974;28;45494;-84
2023/09/27 09:30:45;;;;;;;;;4.33;3.00;;;;;27.25;43.13;101562.63;5058041;28;45281;-84
2023/09/27 09:33:21;;;;;;;;;2.00;2.00;;;;;27.49;43.40;101586.38;5074758;28;45773;-88
2023/09/27 09:35:47;;;;;;;;;4.00;3.00;;;;;27.52;43.30;101605.50;5077739;27;46138;-85
2023/09/27 09:38:23;;;;;;;;;3.67;3.67;;;;;27.50;43.43;101588.03;5057976;27;45469;-84
2023/09/27 09:40:56;;;;;;;;;3.00;3.00;;;;;27.51;43.34;101592.31;5058446;28;45309;-85
2023/09/27 09:43:33;;;;;;;;;3.00;3.00;;;;;27.34;43.56;101576.66;5052984;28;45447;-84
2023/09/27 09:46:00;;;;;;;;;3.00;3.00;;;;;27.47;43.04;101599.09;5042239;28;46223;-83
2023/09/27 09:48:26;;;;;;;;;3.67;3.00;;;;;27.44;42.99;101586.97;5054245;28;45493;-84
2023/09/27 09:50:59;;;;;;;;;3.00;3.00;;;;;27.46;43.17;101576.91;5059131;28;45347;-84
2023/09/27 09:53:25;;;;;;;;;3.33;3.33;;;;;27.41;43.31;101571.31;5058231;28;45354;-85
2023/09/27 09:55:52;;;;;;;;;5.00;4.00;;;;;27.54;43.16;101583.09;5057485;28;46534;-86
2023/09/27 09:58:35;;;;;;;;;4.00;4.00;;;;;27.56;43.45;101583.72;5058404;28;45408;-85
2023/09/27 10:01:03;;;;;;;;;3.00;3.00;;;;;27.39;42.99;101549.34;5057033;28;45396;-84
2023/09/27 10:03:33;;;;;;;;;5.00;4.00;;;;;27.44;43.53;101551.41;5058690;28;45438;-85
2023/09/27 10:06:01;;;;;;;;;2.67;2.67;;;;;27.59;42.85;101559.25;5045339;28;46723;-85
2023/09/27 10:08:34;;;;;;;;;4.67;4.00;;;;;27.31;43.08;101498.75;5057908;28;45448;-85
2023/09/27 10:11:03;;;;;;;;;3.00;3.00;;;;;27.46;43.37;101526.13;5057392;28;45452;-85
2023/09/27 10:13:32;;;;;;;;;2.00;2.00;;;;;27.46;43.06;101519.94;5048304;28;45590;-85
2023/09/27 10:15:58;;;;;;;;;3.67;3.67;;;;;27.55;43.59;101520.59;5065324;28;46213;-85
2023/09/27 10:18:24;;;;;;;;;4.00;3.00;;;;;27.52;43.67;101509.31;5064163;27;45361;-85
2023/09/27 10:21:03;;;;;;;;;5.00;4.00;;;;;27.52;43.13;101505.78;5066224;28;45757;-85
2023/09/27 10:23:47;;;;;;;;;4.00;3.00;;;;;27.49;43.75;101504.34;5068224;28;45532;-86
2023/09/27 10:26:19;;;;;;;;;4.33;4.33;;;;;27.48;43.15;101502.69;5068808;28;45497;-85
2023/09/27 10:29:16;;;;;;;;;3.00;3.00;;;;;27.48;43.49;101485.84;5044787;28;45311;-84
2023/09/27 10:31:56;;;;;;;;;2.67;2.67;;;;;27.47;43.67;101473.50;5055325;28;45629;-86
2023/09/27 10:34:30;;;;;;;;;3.00;3.00;;;;;27.46;43.15;101469.19;5055627;28;45300;-82
2023/09/27 10:37:02;;;;;;;;;2.67;2.67;;;;;27.46;43.15;101486.03;5043910;28;46338;-81
2023/09/27 10:39:28;;;;;;;;;3.00;2.00;;;;;27.42;43.47;101467.94;5056816;28;45344;-82
2023/09/27 10:41:53;;;;;;;;;4.33;2.33;;;;;27.47;43.81;101470.84;5056489;28;46328;-84
2023/09/27 10:44:29;;;;;;;;;3.00;3.00;;;;;27.47;44.06;101477.00;5058664;28;45415;-82
2023/09/27 10:46:54;;;;;;;;;5.00;3.33;;;;;27.37;43.72;101456.03;5076835;27;47084;-81
2023/09/27 10:49:27;;;;;;;;;4.33;4.00;;;;;27.49;44.10;101466.09;5074713;27;45442;-84
2023/09/27 10:51:53;;;;;;;;;4.33;3.00;;;;;27.51;43.38;101464.06;5075850;27;45528;-84
2023/09/27 10:54:23;;;;;;;;;4.00;4.00;;;;;27.48;43.93;101465.28;5055836;28;45317;-84
2023/09/27 10:56:52;;;;;;;;;2.67;2.67;;;;;27.24;43.97;101435.44;5057977;28;45377;-80
2023/09/27 10:59:36;;;;;;;;;2.67;2.67;;;;;27.46;44.25;101471.84;5060539;27;45427;-81
2023/09/27 11:02:03;;;;;;;;;5.00;4.00;;;;;27.51;43.69;101453.38;5064311;28;45384;-77
2023/09/27 11:04:30;;;;;;;;;6.67;4.33;;;;;27.33;43.53;101411.19;5051342;28;45363;-84
2023/09/27 11:06:56;;;;;;;;;3.00;3.00;;;;;27.43;43.40;101434.88;5046473;28;47726;-77
2023/09/27 11:09:23;;;;;;;;;4.00;2.67;;;;;27.52;43.49;101429.13;5058166;28;45508;-79
2023/09/27 11:11:54;;;;;;;;;4.00;4.00;;;;;27.53;43.66;101413.91;5065975;27;45502;-76
2023/09/27 11:14:32;;;;;;;;;6.00;3.00;;;;;27.54;43.53;101422.72;5061811;28;45291;-86
2023/09/27 11:17:21;;;;;;;;;5.67;4.00;;;;;27.44;43.97;101394.56;5062023;28;46317;-86
2023/09/27 11:19:48;;;;;;;;;3.00;3.00;;;;;27.52;43.54;101406.91;5060739;28;45403;-87
2023/09/27 11:22:24;;;;;;;;;3.00;3.00;;;;;27.51;43.54;101399.91;5061293;28;45420;-87
2023/09/27 11:24:50;;;;;;;;;4.00;2.67;;;;;27.49;43.67;101384.09;5052913;28;45407;-86